Nashville, Tennessee
Traffic Map
Current Weather Conditions
Nashville, Tennessee
Overcast
Overcast
-3°
Feels Like: -3°
Wind Chill: -3° Ceiling: 9000
Heat Index: -3° Visibility: 10mi
Dew Point: -15° Wind: 3mph
Humidity: 39% Direction: 80° (E)
Pressure: 30.43in Gusts: 0mph
Raw Report DataKBNA 140553Z 08003KT 10SM OVC090 M03/M15 A3043 RMK AO2 SLP309 T10281150 11022 21033 400061067 55009
Traffic Incident Summary
Active as of:
Severity:
Category:
InformationThere was an issue retrieving the traffic information for this location. Please try a different location or try again shortly.
Advertisements
Track Severe Weather on mobile